sensor_id;sensor_type;location;lat;lon;timestamp;temperature;humidity
913;DHT22;443;51.448;7.028;2022-11-20T00:00:07;10.80;71.80
913;DHT22;443;51.448;7.028;2022-11-20T00:02:34;10.80;71.00
913;DHT22;443;51.448;7.028;2022-11-20T00:05:00;10.80;70.60
913;DHT22;443;51.448;7.028;2022-11-20T00:07:27;10.80;69.90
913;DHT22;443;51.448;7.028;2022-11-20T00:09:55;10.80;70.80
913;DHT22;443;51.448;7.028;2022-11-20T00:12:22;10.80;70.00
913;DHT22;443;51.448;7.028;2022-11-20T00:14:49;10.80;70.80
913;DHT22;443;51.448;7.028;2022-11-20T00:17:16;10.70;70.80
913;DHT22;443;51.448;7.028;2022-11-20T00:19:43;10.70;70.00
913;DHT22;443;51.448;7.028;2022-11-20T00:22:09;10.70;70.60
913;DHT22;443;51.448;7.028;2022-11-20T00:24:36;10.80;70.50
913;DHT22;443;51.448;7.028;2022-11-20T00:27:04;10.90;69.90
913;DHT22;443;51.448;7.028;2022-11-20T00:29:31;10.90;70.00
913;DHT22;443;51.448;7.028;2022-11-20T00:31:58;11.00;73.80
913;DHT22;443;51.448;7.028;2022-11-20T00:34:25;10.10;67.20
913;DHT22;443;51.448;7.028;2022-11-20T00:36:52;9.70;69.40
913;DHT22;443;51.448;7.028;2022-11-20T00:39:18;9.50;71.30
913;DHT22;443;51.448;7.028;2022-11-20T00:41:46;9.40;69.90
913;DHT22;443;51.448;7.028;2022-11-20T00:44:14;9.30;70.20
913;DHT22;443;51.448;7.028;2022-11-20T00:46:41;9.50;71.70
913;DHT22;443;51.448;7.028;2022-11-20T00:49:08;10.80;81.20
913;DHT22;443;51.448;7.028;2022-11-20T00:51:35;9.70;67.70
913;DHT22;443;51.448;7.028;2022-11-20T00:54:02;9.60;70.00
913;DHT22;443;51.448;7.028;2022-11-20T00:56:28;9.40;69.30
913;DHT22;443;51.448;7.028;2022-11-20T00:58:58;9.40;69.90
913;DHT22;443;51.448;7.028;2022-11-20T01:01:27;9.30;70.30
913;DHT22;443;51.448;7.028;2022-11-20T01:03:56;9.30;70.20
913;DHT22;443;51.448;7.028;2022-11-20T01:06:24;9.30;69.90
913;DHT22;443;51.448;7.028;2022-11-20T01:08:53;9.40;71.90
913;DHT22;443;51.448;7.028;2022-11-20T01:11:24;9.60;71.00
913;DHT22;443;51.448;7.028;2022-11-20T01:13:52;9.40;70.20
913;DHT22;443;51.448;7.028;2022-11-20T01:16:20;9.40;71.00
913;DHT22;443;51.448;7.028;2022-11-20T01:18:50;9.20;70.10
913;DHT22;443;51.448;7.028;2022-11-20T01:21:20;9.10;70.40
913;DHT22;443;51.448;7.028;2022-11-20T01:23:48;9.10;71.00
913;DHT22;443;51.448;7.028;2022-11-20T01:26:17;9.10;71.80
913;DHT22;443;51.448;7.028;2022-11-20T01:28:44;9.10;72.30
913;DHT22;443;51.448;7.028;2022-11-20T01:31:13;9.40;71.60
913;DHT22;443;51.448;7.028;2022-11-20T01:33:41;9.40;71.40
913;DHT22;443;51.448;7.028;2022-11-20T01:36:10;9.00;69.80
913;DHT22;443;51.448;7.028;2022-11-20T01:38:37;9.00;71.30
913;DHT22;443;51.448;7.028;2022-11-20T01:41:05;9.10;72.50
913;DHT22;443;51.448;7.028;2022-11-20T01:43:33;9.20;72.90
913;DHT22;443;51.448;7.028;2022-11-20T01:46:02;9.20;71.90
913;DHT22;443;51.448;7.028;2022-11-20T01:48:34;9.30;71.00
913;DHT22;443;51.448;7.028;2022-11-20T01:51:03;9.20;71.00
913;DHT22;443;51.448;7.028;2022-11-20T01:53:34;9.10;71.20
913;DHT22;443;51.448;7.028;2022-11-20T01:56:05;9.00;70.20
913;DHT22;443;51.448;7.028;2022-11-20T01:58:36;9.00;71.60
913;DHT22;443;51.448;7.028;2022-11-20T02:01:04;9.20;73.00
913;DHT22;443;51.448;7.028;2022-11-20T02:03:31;9.30;72.00
913;DHT22;443;51.448;7.028;2022-11-20T02:06:04;9.20;72.10
913;DHT22;443;51.448;7.028;2022-11-20T02:08:34;9.30;72.30
913;DHT22;443;51.448;7.028;2022-11-20T02:11:01;9.40;72.90
913;DHT22;443;51.448;7.028;2022-11-20T02:13:28;9.30;72.00
913;DHT22;443;51.448;7.028;2022-11-20T02:16:19;9.30;72.30
913;DHT22;443;51.448;7.028;2022-11-20T02:18:46;9.40;71.80
913;DHT22;443;51.448;7.028;2022-11-20T02:21:23;9.40;72.10
913;DHT22;443;51.448;7.028;2022-11-20T02:24:03;9.40;72.00
913;DHT22;443;51.448;7.028;2022-11-20T02:26:33;9.30;71.60
913;DHT22;443;51.448;7.028;2022-11-20T02:29:02;9.40;72.20
913;DHT22;443;51.448;7.028;2022-11-20T02:31:37;9.40;71.90
913;DHT22;443;51.448;7.028;2022-11-20T02:34:05;9.30;71.90
913;DHT22;443;51.448;7.028;2022-11-20T02:36:34;9.40;72.10
913;DHT22;443;51.448;7.028;2022-11-20T02:39:02;9.50;72.60
913;DHT22;443;51.448;7.028;2022-11-20T02:41:34;9.50;72.40
913;DHT22;443;51.448;7.028;2022-11-20T02:44:01;9.60;72.30
913;DHT22;443;51.448;7.028;2022-11-20T02:46:28;9.50;73.10
913;DHT22;443;51.448;7.028;2022-11-20T02:48:56;9.60;72.50
913;DHT22;443;51.448;7.028;2022-11-20T02:51:23;9.60;71.90
913;DHT22;443;51.448;7.028;2022-11-20T02:53:50;9.50;72.00
913;DHT22;443;51.448;7.028;2022-11-20T02:56:18;9.50;72.80
913;DHT22;443;51.448;7.028;2022-11-20T02:58:45;9.70;72.20
913;DHT22;443;51.448;7.028;2022-11-20T03:01:12;9.60;71.40
913;DHT22;443;51.448;7.028;2022-11-20T03:03:39;9.80;73.40
913;DHT22;443;51.448;7.028;2022-11-20T03:06:06;9.70;71.10
913;DHT22;443;51.448;7.028;2022-11-20T03:08:33;9.50;72.30
913;DHT22;443;51.448;7.028;2022-11-20T03:11:05;9.50;72.00
913;DHT22;443;51.448;7.028;2022-11-20T03:13:34;9.60;73.00
913;DHT22;443;51.448;7.028;2022-11-20T03:16:06;9.60;71.40
913;DHT22;443;51.448;7.028;2022-11-20T03:18:33;9.70;72.20
913;DHT22;443;51.448;7.028;2022-11-20T03:21:00;9.70;72.50
913;DHT22;443;51.448;7.028;2022-11-20T03:23:29;9.70;72.20
913;DHT22;443;51.448;7.028;2022-11-20T03:25:56;9.70;73.50
913;DHT22;443;51.448;7.028;2022-11-20T03:28:23;9.80;72.70
913;DHT22;443;51.448;7.028;2022-11-20T03:30:51;9.90;72.10
913;DHT22;443;51.448;7.028;2022-11-20T03:33:17;9.70;73.40
913;DHT22;443;51.448;7.028;2022-11-20T03:35:44;9.80;71.90
913;DHT22;443;51.448;7.028;2022-11-20T03:38:11;9.90;72.70
913;DHT22;443;51.448;7.028;2022-11-20T03:40:38;9.90;73.10
913;DHT22;443;51.448;7.028;2022-11-20T03:43:04;9.90;72.90
913;DHT22;443;51.448;7.028;2022-11-20T03:45:31;9.80;72.20
913;DHT22;443;51.448;7.028;2022-11-20T03:47:59;9.90;72.10
913;DHT22;443;51.448;7.028;2022-11-20T03:50:26;9.90;73.30
913;DHT22;443;51.448;7.028;2022-11-20T03:52:53;9.90;72.30
913;DHT22;443;51.448;7.028;2022-11-20T03:55:20;10.00;71.40
913;DHT22;443;51.448;7.028;2022-11-20T03:57:46;9.90;71.70
913;DHT22;443;51.448;7.028;2022-11-20T04:00:14;9.90;72.90
913;DHT22;443;51.448;7.028;2022-11-20T04:02:41;10.00;72.90
913;DHT22;443;51.448;7.028;2022-11-20T04:05:09;10.10;71.70
913;DHT22;443;51.448;7.028;2022-11-20T04:07:36;10.00;70.30
913;DHT22;443;51.448;7.028;2022-11-20T04:10:03;10.10;73.00
913;DHT22;443;51.448;7.028;2022-11-20T04:12:32;10.20;71.50
913;DHT22;443;51.448;7.028;2022-11-20T04:14:59;10.20;71.50
913;DHT22;443;51.448;7.028;2022-11-20T04:17:25;10.20;71.60
913;DHT22;443;51.448;7.028;2022-11-20T04:19:52;10.20;71.50
913;DHT22;443;51.448;7.028;2022-11-20T04:22:20;10.00;70.30
913;DHT22;443;51.448;7.028;2022-11-20T04:24:47;10.10;70.60
913;DHT22;443;51.448;7.028;2022-11-20T04:27:14;10.10;72.10
913;DHT22;443;51.448;7.028;2022-11-20T04:29:40;10.20;72.50
913;DHT22;443;51.448;7.028;2022-11-20T04:32:07;10.20;71.80
913;DHT22;443;51.448;7.028;2022-11-20T04:34:34;10.00;71.60
913;DHT22;443;51.448;7.028;2022-11-20T04:37:01;10.20;71.50
913;DHT22;443;51.448;7.028;2022-11-20T04:39:29;10.20;71.10
913;DHT22;443;51.448;7.028;2022-11-20T04:41:56;10.20;71.60
913;DHT22;443;51.448;7.028;2022-11-20T04:44:36;10.20;72.20
913;DHT22;443;51.448;7.028;2022-11-20T04:47:03;10.20;70.90
913;DHT22;443;51.448;7.028;2022-11-20T04:49:30;10.20;71.20
913;DHT22;443;51.448;7.028;2022-11-20T04:51:57;10.10;71.30
913;DHT22;443;51.448;7.028;2022-11-20T04:54:24;10.10;71.20
913;DHT22;443;51.448;7.028;2022-11-20T04:56:52;10.10;71.30
913;DHT22;443;51.448;7.028;2022-11-20T04:59:19;10.10;71.30
913;DHT22;443;51.448;7.028;2022-11-20T05:01:45;10.00;70.90
913;DHT22;443;51.448;7.028;2022-11-20T05:04:12;10.00;71.20
913;DHT22;443;51.448;7.028;2022-11-20T05:06:39;9.90;71.50
913;DHT22;443;51.448;7.028;2022-11-20T05:09:06;9.80;70.80
913;DHT22;443;51.448;7.028;2022-11-20T05:11:33;9.90;72.20
913;DHT22;443;51.448;7.028;2022-11-20T05:14:01;10.00;70.60
913;DHT22;443;51.448;7.028;2022-11-20T05:16:27;9.80;72.80
913;DHT22;443;51.448;7.028;2022-11-20T05:18:55;9.80;73.10
913;DHT22;443;51.448;7.028;2022-11-20T05:21:22;9.70;73.10
913;DHT22;443;51.448;7.028;2022-11-20T05:23:49;9.80;73.70
913;DHT22;443;51.448;7.028;2022-11-20T05:26:17;9.70;73.80
913;DHT22;443;51.448;7.028;2022-11-20T05:28:44;9.70;73.60
913;DHT22;443;51.448;7.028;2022-11-20T05:31:15;9.70;74.50
913;DHT22;443;51.448;7.028;2022-11-20T05:33:44;9.70;74.90
913;DHT22;443;51.448;7.028;2022-11-20T05:36:12;9.70;74.50
913;DHT22;443;51.448;7.028;2022-11-20T05:38:40;9.70;74.40
913;DHT22;443;51.448;7.028;2022-11-20T05:41:08;9.80;75.20
913;DHT22;443;51.448;7.028;2022-11-20T05:43:36;9.70;73.80
913;DHT22;443;51.448;7.028;2022-11-20T05:46:04;9.70;74.00
913;DHT22;443;51.448;7.028;2022-11-20T05:48:33;9.70;74.80
913;DHT22;443;51.448;7.028;2022-11-20T05:51:02;9.70;74.60
913;DHT22;443;51.448;7.028;2022-11-20T05:53:29;9.80;75.10
913;DHT22;443;51.448;7.028;2022-11-20T05:55:57;9.70;74.10
913;DHT22;443;51.448;7.028;2022-11-20T05:58:24;9.80;74.40
913;DHT22;443;51.448;7.028;2022-11-20T06:00:51;9.80;75.20
913;DHT22;443;51.448;7.028;2022-11-20T06:03:17;9.90;75.40
913;DHT22;443;51.448;7.028;2022-11-20T06:05:46;9.90;74.90
913;DHT22;443;51.448;7.028;2022-11-20T06:08:13;9.90;74.90
913;DHT22;443;51.448;7.028;2022-11-20T06:10:40;10.00;73.90
913;DHT22;443;51.448;7.028;2022-11-20T06:13:06;10.00;73.80
913;DHT22;443;51.448;7.028;2022-11-20T06:15:33;9.90;74.60
913;DHT22;443;51.448;7.028;2022-11-20T06:18:00;10.00;74.20
913;DHT22;443;51.448;7.028;2022-11-20T06:20:27;10.20;74.50
913;DHT22;443;51.448;7.028;2022-11-20T06:22:55;10.10;74.50
913;DHT22;443;51.448;7.028;2022-11-20T06:25:21;10.10;73.50
913;DHT22;443;51.448;7.028;2022-11-20T06:27:48;10.20;74.20
913;DHT22;443;51.448;7.028;2022-11-20T06:30:15;10.10;73.90
913;DHT22;443;51.448;7.028;2022-11-20T06:32:42;10.20;74.30
913;DHT22;443;51.448;7.028;2022-11-20T06:35:09;10.10;73.40
913;DHT22;443;51.448;7.028;2022-11-20T06:37:36;10.20;74.60
913;DHT22;443;51.448;7.028;2022-11-20T06:40:06;10.20;73.50
913;DHT22;443;51.448;7.028;2022-11-20T06:42:33;10.20;74.00
913;DHT22;443;51.448;7.028;2022-11-20T06:44:59;10.10;73.60
913;DHT22;443;51.448;7.028;2022-11-20T06:47:26;10.20;73.80
913;DHT22;443;51.448;7.028;2022-11-20T06:49:53;10.20;74.30
913;DHT22;443;51.448;7.028;2022-11-20T06:52:19;10.20;73.30
913;DHT22;443;51.448;7.028;2022-11-20T06:54:46;10.10;74.10
913;DHT22;443;51.448;7.028;2022-11-20T06:57:14;10.20;73.70
913;DHT22;443;51.448;7.028;2022-11-20T06:59:41;10.20;74.10
913;DHT22;443;51.448;7.028;2022-11-20T07:02:09;10.20;73.80
913;DHT22;443;51.448;7.028;2022-11-20T07:04:36;10.20;73.80
913;DHT22;443;51.448;7.028;2022-11-20T07:07:03;10.20;74.20
913;DHT22;443;51.448;7.028;2022-11-20T07:09:31;10.10;74.00
913;DHT22;443;51.448;7.028;2022-11-20T07:11:58;10.10;73.20
913;DHT22;443;51.448;7.028;2022-11-20T07:14:27;10.10;74.20
913;DHT22;443;51.448;7.028;2022-11-20T07:16:54;10.10;73.20
913;DHT22;443;51.448;7.028;2022-11-20T07:19:21;10.10;73.60
913;DHT22;443;51.448;7.028;2022-11-20T07:21:47;10.20;73.50
913;DHT22;443;51.448;7.028;2022-11-20T07:24:14;10.10;73.20
913;DHT22;443;51.448;7.028;2022-11-20T07:26:41;10.10;72.90
913;DHT22;443;51.448;7.028;2022-11-20T07:29:08;10.20;74.10
913;DHT22;443;51.448;7.028;2022-11-20T07:31:36;10.10;73.90
913;DHT22;443;51.448;7.028;2022-11-20T07:34:03;10.10;73.40
913;DHT22;443;51.448;7.028;2022-11-20T07:36:30;10.10;73.30
913;DHT22;443;51.448;7.028;2022-11-20T07:38:57;10.10;73.80
913;DHT22;443;51.448;7.028;2022-11-20T07:41:24;10.10;73.10
913;DHT22;443;51.448;7.028;2022-11-20T07:43:50;10.10;73.70
913;DHT22;443;51.448;7.028;2022-11-20T07:46:17;10.10;74.50
913;DHT22;443;51.448;7.028;2022-11-20T07:48:45;10.10;74.10
913;DHT22;443;51.448;7.028;2022-11-20T07:51:12;10.10;73.10
913;DHT22;443;51.448;7.028;2022-11-20T07:53:39;10.10;73.60
913;DHT22;443;51.448;7.028;2022-11-20T07:56:07;10.00;73.40
913;DHT22;443;51.448;7.028;2022-11-20T07:58:34;10.00;72.60
913;DHT22;443;51.448;7.028;2022-11-20T08:01:04;10.10;74.40
913;DHT22;443;51.448;7.028;2022-11-20T08:03:31;10.10;74.00
913;DHT22;443;51.448;7.028;2022-11-20T08:06:00;10.10;74.80
913;DHT22;443;51.448;7.028;2022-11-20T08:08:27;10.20;76.70
913;DHT22;443;51.448;7.028;2022-11-20T08:10:56;10.40;76.90
913;DHT22;443;51.448;7.028;2022-11-20T08:13:43;10.50;76.70
913;DHT22;443;51.448;7.028;2022-11-20T08:16:27;10.40;75.80
913;DHT22;443;51.448;7.028;2022-11-20T08:18:53;10.40;75.70
913;DHT22;443;51.448;7.028;2022-11-20T08:21:21;10.60;77.00
913;DHT22;443;51.448;7.028;2022-11-20T08:23:49;10.50;76.70
913;DHT22;443;51.448;7.028;2022-11-20T08:26:16;10.50;76.70
913;DHT22;443;51.448;7.028;2022-11-20T08:28:43;10.50;77.30
913;DHT22;443;51.448;7.028;2022-11-20T08:31:10;10.40;76.30
913;DHT22;443;51.448;7.028;2022-11-20T08:33:37;10.50;76.60
913;DHT22;443;51.448;7.028;2022-11-20T08:36:05;10.60;75.50
913;DHT22;443;51.448;7.028;2022-11-20T08:38:34;10.60;77.20
913;DHT22;443;51.448;7.028;2022-11-20T08:41:02;10.50;76.00
913;DHT22;443;51.448;7.028;2022-11-20T08:43:54;10.40;76.00
913;DHT22;443;51.448;7.028;2022-11-20T08:46:21;10.50;76.10
913;DHT22;443;51.448;7.028;2022-11-20T08:48:48;10.70;77.50
913;DHT22;443;51.448;7.028;2022-11-20T08:51:15;10.80;76.30
913;DHT22;443;51.448;7.028;2022-11-20T08:53:43;10.80;77.80
913;DHT22;443;51.448;7.028;2022-11-20T08:56:10;10.70;76.10
913;DHT22;443;51.448;7.028;2022-11-20T08:58:37;10.80;77.30
913;DHT22;443;51.448;7.028;2022-11-20T09:01:04;10.90;77.00
913;DHT22;443;51.448;7.028;2022-11-20T09:03:31;10.80;77.30
913;DHT22;443;51.448;7.028;2022-11-20T09:05:58;10.80;76.40
913;DHT22;443;51.448;7.028;2022-11-20T09:08:26;10.80;75.80
913;DHT22;443;51.448;7.028;2022-11-20T09:10:54;10.80;76.00
913;DHT22;443;51.448;7.028;2022-11-20T09:13:22;10.60;74.00
913;DHT22;443;51.448;7.028;2022-11-20T09:15:53;10.70;75.30
913;DHT22;443;51.448;7.028;2022-11-20T09:18:20;10.70;75.90
913;DHT22;443;51.448;7.028;2022-11-20T09:20:47;10.70;76.00
913;DHT22;443;51.448;7.028;2022-11-20T09:23:13;10.90;75.70
913;DHT22;443;51.448;7.028;2022-11-20T09:25:40;10.90;74.70
913;DHT22;443;51.448;7.028;2022-11-20T09:28:08;11.00;75.20
913;DHT22;443;51.448;7.028;2022-11-20T09:30:35;11.00;73.90
913;DHT22;443;51.448;7.028;2022-11-20T09:33:04;11.00;75.30
913;DHT22;443;51.448;7.028;2022-11-20T09:35:31;11.10;74.60
913;DHT22;443;51.448;7.028;2022-11-20T09:37:58;11.10;75.10
913;DHT22;443;51.448;7.028;2022-11-20T09:40:27;11.10;75.00
913;DHT22;443;51.448;7.028;2022-11-20T09:42:58;11.10;75.10
913;DHT22;443;51.448;7.028;2022-11-20T09:45:39;11.30;73.40
913;DHT22;443;51.448;7.028;2022-11-20T09:48:29;11.20;73.40
913;DHT22;443;51.448;7.028;2022-11-20T09:51:03;11.30;74.60
913;DHT22;443;51.448;7.028;2022-11-20T09:53:41;11.30;75.00
913;DHT22;443;51.448;7.028;2022-11-20T09:56:11;11.40;74.70
913;DHT22;443;51.448;7.028;2022-11-20T09:58:40;11.40;75.30
913;DHT22;443;51.448;7.028;2022-11-20T10:01:12;11.40;75.00
913;DHT22;443;51.448;7.028;2022-11-20T10:03:49;11.40;74.70
913;DHT22;443;51.448;7.028;2022-11-20T10:06:18;11.50;75.00
913;DHT22;443;51.448;7.028;2022-11-20T10:08:50;11.50;74.80
913;DHT22;443;51.448;7.028;2022-11-20T10:11:24;11.50;74.20
913;DHT22;443;51.448;7.028;2022-11-20T10:13:59;11.60;74.60
913;DHT22;443;51.448;7.028;2022-11-20T10:16:38;11.60;75.00
913;DHT22;443;51.448;7.028;2022-11-20T10:19:16;11.60;74.60
913;DHT22;443;51.448;7.028;2022-11-20T10:21:57;11.60;74.00
913;DHT22;443;51.448;7.028;2022-11-20T10:24:47;11.70;74.70
913;DHT22;443;51.448;7.028;2022-11-20T10:27:53;11.70;74.50
913;DHT22;443;51.448;7.028;2022-11-20T10:30:22;11.70;74.40
913;DHT22;443;51.448;7.028;2022-11-20T10:32:54;11.70;73.70
913;DHT22;443;51.448;7.028;2022-11-20T10:35:25;11.70;71.30
913;DHT22;443;51.448;7.028;2022-11-20T10:37:59;11.70;73.40
913;DHT22;443;51.448;7.028;2022-11-20T10:40:32;11.80;73.10
913;DHT22;443;51.448;7.028;2022-11-20T10:43:03;11.80;72.40
913;DHT22;443;51.448;7.028;2022-11-20T10:45:45;11.70;73.30
913;DHT22;443;51.448;7.028;2022-11-20T10:48:19;11.80;72.20
913;DHT22;443;51.448;7.028;2022-11-20T10:50:55;11.90;73.80
913;DHT22;443;51.448;7.028;2022-11-20T10:53:37;11.90;73.00
913;DHT22;443;51.448;7.028;2022-11-20T10:56:11;11.90;73.20
913;DHT22;443;51.448;7.028;2022-11-20T10:58:48;12.00;74.70
913;DHT22;443;51.448;7.028;2022-11-20T11:01:18;11.90;72.00
913;DHT22;443;51.448;7.028;2022-11-20T11:03:49;11.90;73.30
913;DHT22;443;51.448;7.028;2022-11-20T11:06:22;11.90;72.80
913;DHT22;443;51.448;7.028;2022-11-20T11:08:53;12.00;74.00
913;DHT22;443;51.448;7.028;2022-11-20T11:11:22;12.00;74.80
913;DHT22;443;51.448;7.028;2022-11-20T11:13:49;12.10;74.80
913;DHT22;443;51.448;7.028;2022-11-20T11:16:21;12.00;72.50
913;DHT22;443;51.448;7.028;2022-11-20T11:18:50;12.00;73.70
913;DHT22;443;51.448;7.028;2022-11-20T11:21:22;12.10;74.20
913;DHT22;443;51.448;7.028;2022-11-20T11:23:59;12.00;71.50
913;DHT22;443;51.448;7.028;2022-11-20T11:26:26;12.00;74.70
913;DHT22;443;51.448;7.028;2022-11-20T11:28:54;12.10;73.30
913;DHT22;443;51.448;7.028;2022-11-20T11:31:25;12.10;73.30
913;DHT22;443;51.448;7.028;2022-11-20T11:34:05;12.00;72.30
913;DHT22;443;51.448;7.028;2022-11-20T11:36:33;12.10;73.60
913;DHT22;443;51.448;7.028;2022-11-20T11:39:02;12.00;72.10
913;DHT22;443;51.448;7.028;2022-11-20T11:41:31;12.10;74.30
913;DHT22;443;51.448;7.028;2022-11-20T11:44:04;12.10;74.60
913;DHT22;443;51.448;7.028;2022-11-20T11:46:57;12.10;70.40
913;DHT22;443;51.448;7.028;2022-11-20T11:49:25;12.10;72.30
913;DHT22;443;51.448;7.028;2022-11-20T11:52:03;12.10;74.80
913;DHT22;443;51.448;7.028;2022-11-20T11:54:35;12.10;72.10
913;DHT22;443;51.448;7.028;2022-11-20T11:57:10;12.10;70.40
913;DHT22;443;51.448;7.028;2022-11-20T11:59:46;12.10;73.60
913;DHT22;443;51.448;7.028;2022-11-20T12:02:29;12.00;72.10
913;DHT22;443;51.448;7.028;2022-11-20T12:05:03;12.00;71.80
913;DHT22;443;51.448;7.028;2022-11-20T12:07:39;12.10;74.20
913;DHT22;443;51.448;7.028;2022-11-20T12:10:16;12.10;73.50
913;DHT22;443;51.448;7.028;2022-11-20T12:12:45;12.00;73.10
913;DHT22;443;51.448;7.028;2022-11-20T12:15:23;12.10;74.20
913;DHT22;443;51.448;7.028;2022-11-20T12:17:51;12.10;73.70
913;DHT22;443;51.448;7.028;2022-11-20T12:20:21;12.10;72.70
913;DHT22;443;51.448;7.028;2022-11-20T12:22:56;12.10;73.90
913;DHT22;443;51.448;7.028;2022-11-20T12:25:29;12.00;72.00
913;DHT22;443;51.448;7.028;2022-11-20T12:28:23;12.10;74.20
913;DHT22;443;51.448;7.028;2022-11-20T12:31:03;12.10;73.30
913;DHT22;443;51.448;7.028;2022-11-20T12:33:47;12.10;74.50
913;DHT22;443;51.448;7.028;2022-11-20T12:36:25;12.10;72.60
913;DHT22;443;51.448;7.028;2022-11-20T12:39:07;12.10;72.40
913;DHT22;443;51.448;7.028;2022-11-20T12:41:46;12.10;74.20
913;DHT22;443;51.448;7.028;2022-11-20T12:45:14;12.10;73.00
913;DHT22;443;51.448;7.028;2022-11-20T12:47:54;12.10;73.30
913;DHT22;443;51.448;7.028;2022-11-20T12:50:31;12.10;74.20
913;DHT22;443;51.448;7.028;2022-11-20T12:53:04;12.00;72.50
913;DHT22;443;51.448;7.028;2022-11-20T12:55:42;12.10;73.10
913;DHT22;443;51.448;7.028;2022-11-20T12:58:16;12.10;73.80
913;DHT22;443;51.448;7.028;2022-11-20T13:00:53;12.00;71.70
913;DHT22;443;51.448;7.028;2022-11-20T13:03:31;12.10;72.70
913;DHT22;443;51.448;7.028;2022-11-20T13:06:05;12.20;73.60
913;DHT22;443;51.448;7.028;2022-11-20T13:08:39;12.20;72.80
913;DHT22;443;51.448;7.028;2022-11-20T13:11:12;12.10;70.90
913;DHT22;443;51.448;7.028;2022-11-20T13:13:50;12.10;71.30
913;DHT22;443;51.448;7.028;2022-11-20T13:16:27;12.10;70.70
913;DHT22;443;51.448;7.028;2022-11-20T13:19:01;12.10;71.20
913;DHT22;443;51.448;7.028;2022-11-20T13:21:36;12.20;72.70
913;DHT22;443;51.448;7.028;2022-11-20T13:24:06;12.30;75.10
913;DHT22;443;51.448;7.028;2022-11-20T13:26:33;12.20;72.50
913;DHT22;443;51.448;7.028;2022-11-20T13:29:03;12.20;71.40
913;DHT22;443;51.448;7.028;2022-11-20T13:31:33;12.20;74.40
913;DHT22;443;51.448;7.028;2022-11-20T13:34:02;12.20;72.90
913;DHT22;443;51.448;7.028;2022-11-20T13:36:30;12.30;73.20
913;DHT22;443;51.448;7.028;2022-11-20T13:38:58;12.30;73.20
913;DHT22;443;51.448;7.028;2022-11-20T13:41:28;12.30;73.20
913;DHT22;443;51.448;7.028;2022-11-20T13:44:10;12.20;73.00
913;DHT22;443;51.448;7.028;2022-11-20T13:46:40;12.20;74.10
913;DHT22;443;51.448;7.028;2022-11-20T13:49:10;12.20;72.30
913;DHT22;443;51.448;7.028;2022-11-20T13:51:44;12.20;72.20
913;DHT22;443;51.448;7.028;2022-11-20T13:54:44;12.20;73.60
913;DHT22;443;51.448;7.028;2022-11-20T13:57:40;12.20;74.90
913;DHT22;443;51.448;7.028;2022-11-20T14:00:12;12.20;75.10
913;DHT22;443;51.448;7.028;2022-11-20T14:02:39;12.20;74.40
913;DHT22;443;51.448;7.028;2022-11-20T14:05:17;12.20;74.50
913;DHT22;443;51.448;7.028;2022-11-20T14:07:47;12.20;72.20
913;DHT22;443;51.448;7.028;2022-11-20T14:10:22;12.20;72.10
913;DHT22;443;51.448;7.028;2022-11-20T14:12:50;12.20;74.10
913;DHT22;443;51.448;7.028;2022-11-20T14:15:28;12.20;73.60
913;DHT22;443;51.448;7.028;2022-11-20T14:17:56;12.30;73.90
913;DHT22;443;51.448;7.028;2022-11-20T14:20:25;12.50;74.30
913;DHT22;443;51.448;7.028;2022-11-20T14:22:55;12.20;73.50
913;DHT22;443;51.448;7.028;2022-11-20T14:25:23;12.20;75.80
913;DHT22;443;51.448;7.028;2022-11-20T14:27:55;12.20;74.90
913;DHT22;443;51.448;7.028;2022-11-20T14:30:24;12.10;73.90
913;DHT22;443;51.448;7.028;2022-11-20T14:32:54;12.10;75.40
913;DHT22;443;51.448;7.028;2022-11-20T14:35:24;12.10;75.10
913;DHT22;443;51.448;7.028;2022-11-20T14:37:52;12.10;74.70
913;DHT22;443;51.448;7.028;2022-11-20T14:40:25;12.00;74.60
913;DHT22;443;51.448;7.028;2022-11-20T14:42:54;11.90;74.60
913;DHT22;443;51.448;7.028;2022-11-20T14:45:21;12.00;75.40
913;DHT22;443;51.448;7.028;2022-11-20T14:47:49;12.20;78.30
913;DHT22;443;51.448;7.028;2022-11-20T14:50:20;12.00;73.80
913;DHT22;443;51.448;7.028;2022-11-20T14:52:55;11.90;74.30
913;DHT22;443;51.448;7.028;2022-11-20T14:55:27;12.00;74.70
913;DHT22;443;51.448;7.028;2022-11-20T14:57:57;12.00;75.30
913;DHT22;443;51.448;7.028;2022-11-20T15:00:25;12.00;74.40
913;DHT22;443;51.448;7.028;2022-11-20T15:02:52;12.10;76.50
913;DHT22;443;51.448;7.028;2022-11-20T15:05:20;12.10;75.40
913;DHT22;443;51.448;7.028;2022-11-20T15:07:49;12.00;75.50
913;DHT22;443;51.448;7.028;2022-11-20T15:10:22;12.20;74.50
913;DHT22;443;51.448;7.028;2022-11-20T15:12:51;11.90;74.70
913;DHT22;443;51.448;7.028;2022-11-20T15:15:23;11.90;75.80
913;DHT22;443;51.448;7.028;2022-11-20T15:17:51;12.00;76.10
913;DHT22;443;51.448;7.028;2022-11-20T15:20:18;12.00;75.60
913;DHT22;443;51.448;7.028;2022-11-20T15:22:45;12.00;75.40
913;DHT22;443;51.448;7.028;2022-11-20T15:25:13;12.00;74.60
913;DHT22;443;51.448;7.028;2022-11-20T15:27:40;12.00;75.00
913;DHT22;443;51.448;7.028;2022-11-20T15:30:13;12.20;76.00
913;DHT22;443;51.448;7.028;2022-11-20T15:32:41;11.90;75.10
913;DHT22;443;51.448;7.028;2022-11-20T15:35:09;12.00;75.30
913;DHT22;443;51.448;7.028;2022-11-20T15:37:36;12.20;78.00
913;DHT22;443;51.448;7.028;2022-11-20T15:40:03;11.90;75.90
913;DHT22;443;51.448;7.028;2022-11-20T15:42:30;11.90;75.50
913;DHT22;443;51.448;7.028;2022-11-20T15:44:57;12.10;78.70
913;DHT22;443;51.448;7.028;2022-11-20T15:47:26;12.10;75.90
913;DHT22;443;51.448;7.028;2022-11-20T15:49:55;12.40;75.60
913;DHT22;443;51.448;7.028;2022-11-20T15:52:22;12.20;76.10
913;DHT22;443;51.448;7.028;2022-11-20T15:54:49;12.30;78.20
913;DHT22;443;51.448;7.028;2022-11-20T15:57:16;12.40;76.50
913;DHT22;443;51.448;7.028;2022-11-20T15:59:42;12.50;77.50
913;DHT22;443;51.448;7.028;2022-11-20T16:02:10;12.60;76.60
913;DHT22;443;51.448;7.028;2022-11-20T16:04:38;12.30;74.90
913;DHT22;443;51.448;7.028;2022-11-20T16:07:07;12.10;76.10
913;DHT22;443;51.448;7.028;2022-11-20T16:09:33;12.10;77.30
913;DHT22;443;51.448;7.028;2022-11-20T16:12:00;11.90;75.40
913;DHT22;443;51.448;7.028;2022-11-20T16:14:27;11.90;76.40
913;DHT22;443;51.448;7.028;2022-11-20T16:17:12;11.80;76.00
913;DHT22;443;51.448;7.028;2022-11-20T16:19:38;11.80;76.30
913;DHT22;443;51.448;7.028;2022-11-20T16:22:09;11.80;76.40
913;DHT22;443;51.448;7.028;2022-11-20T16:24:36;11.80;77.20
913;DHT22;443;51.448;7.028;2022-11-20T16:27:03;11.80;77.30
913;DHT22;443;51.448;7.028;2022-11-20T16:29:30;11.80;77.50
913;DHT22;443;51.448;7.028;2022-11-20T16:31:57;11.80;77.70
913;DHT22;443;51.448;7.028;2022-11-20T16:34:23;11.70;77.00
913;DHT22;443;51.448;7.028;2022-11-20T16:36:50;11.80;78.10
913;DHT22;443;51.448;7.028;2022-11-20T16:39:19;11.80;77.60
913;DHT22;443;51.448;7.028;2022-11-20T16:41:45;11.80;78.20
913;DHT22;443;51.448;7.028;2022-11-20T16:44:12;11.80;77.90
913;DHT22;443;51.448;7.028;2022-11-20T16:46:39;11.80;78.00
913;DHT22;443;51.448;7.028;2022-11-20T16:49:11;11.80;78.00
913;DHT22;443;51.448;7.028;2022-11-20T16:51:38;11.80;75.70
913;DHT22;443;51.448;7.028;2022-11-20T16:54:05;11.90;75.70
913;DHT22;443;51.448;7.028;2022-11-20T16:56:34;12.10;76.00